createdAt,value
2018-09-29T00:00:14.550Z,2.17
2018-09-29T00:02:42.186Z,2.27
2018-09-29T00:05:10.437Z,2.53
2018-09-29T00:07:38.626Z,3.23
2018-09-29T00:10:06.278Z,2.20
2018-09-29T00:12:33.939Z,1.43
2018-09-29T00:15:01.834Z,2.17
2018-09-29T00:17:29.508Z,1.47
2018-09-29T00:19:57.117Z,2.13
2018-09-29T00:22:25.130Z,1.97
2018-09-29T00:24:55.962Z,2.10
2018-09-29T00:27:29.298Z,2.30
2018-09-29T00:29:56.963Z,2.73
2018-09-29T00:32:24.612Z,2.33
2018-09-29T00:34:52.281Z,2.37
2018-09-29T00:37:19.897Z,2.37
2018-09-29T00:39:47.831Z,1.50
2018-09-29T00:42:24.122Z,3.13
2018-09-29T00:44:51.941Z,2.13
2018-09-29T00:47:19.833Z,2.10
2018-09-29T00:49:47.554Z,3.60
2018-09-29T00:52:15.212Z,2.10
2018-09-29T00:54:43.322Z,2.40
2018-09-29T00:57:10.994Z,3.10
2018-09-29T00:59:38.669Z,2.13
2018-09-29T01:02:06.613Z,5.23
2018-09-29T01:04:34.264Z,3.43
2018-09-29T01:07:01.938Z,2.87
2018-09-29T01:09:29.770Z,4.97
2018-09-29T01:11:57.349Z,3.03
2018-09-29T01:14:24.978Z,3.23
2018-09-29T01:16:52.786Z,3.27
2018-09-29T01:19:20.420Z,2.30
2018-09-29T01:21:48.046Z,2.30
2018-09-29T01:24:15.944Z,4.20
2018-09-29T01:26:43.638Z,3.83
2018-09-29T01:29:11.305Z,2.30
2018-09-29T01:31:39.172Z,3.23
2018-09-29T01:34:06.867Z,3.37
2018-09-29T01:36:34.498Z,3.90
2018-09-29T01:39:02.457Z,2.53
2018-09-29T01:41:30.202Z,2.60
2018-09-29T01:43:57.871Z,4.07
2018-09-29T01:46:25.969Z,2.87
2018-09-29T01:48:53.600Z,1.87
2018-09-29T01:51:21.265Z,4.17
2018-09-29T01:53:49.084Z,2.77
2018-09-29T01:56:16.717Z,2.80
2018-09-29T01:58:44.404Z,2.57
2018-09-29T02:01:12.386Z,4.67
2018-09-29T02:03:40.092Z,3.27
2018-09-29T02:06:07.789Z,3.80
2018-09-29T02:08:35.682Z,3.30
2018-09-29T02:11:03.306Z,2.40
2018-09-29T02:13:31.810Z,3.40
2018-09-29T02:15:59.694Z,2.10
2018-09-29T02:18:27.389Z,2.93
2018-09-29T02:20:55.054Z,2.37
2018-09-29T02:23:22.936Z,1.90
2018-09-29T02:25:50.413Z,2.20
2018-09-29T02:28:18.033Z,2.17
2018-09-29T02:30:46.362Z,1.70
2018-09-29T02:33:14.023Z,3.60
2018-09-29T02:35:41.755Z,3.13
2018-09-29T02:38:09.402Z,2.50
2018-09-29T02:40:37.066Z,1.97
2018-09-29T02:43:05.229Z,2.00
2018-09-29T02:45:32.898Z,2.93
2018-09-29T02:48:00.738Z,3.10
2018-09-29T02:50:28.397Z,3.73
2018-09-29T02:52:56.059Z,2.23
2018-09-29T02:55:24.898Z,1.43
2018-09-29T02:57:53.162Z,2.87
2018-09-29T03:00:20.819Z,4.50
2018-09-29T03:02:48.457Z,3.20
2018-09-29T03:05:16.672Z,1.60
2018-09-29T03:07:44.329Z,3.37
2018-09-29T03:10:12.049Z,3.13
2018-09-29T03:12:39.923Z,3.13
2018-09-29T03:15:07.958Z,3.47
2018-09-29T03:17:35.605Z,4.73
2018-09-29T03:20:03.965Z,4.00
2018-09-29T03:22:31.991Z,4.17
2018-09-29T03:24:59.718Z,6.17
2018-09-29T03:27:28.221Z,3.60
2018-09-29T03:29:56.110Z,3.57
2018-09-29T03:32:23.763Z,6.40
2018-09-29T03:34:51.357Z,4.67
2018-09-29T03:37:19.522Z,5.03
2018-09-29T03:39:47.298Z,2.43
2018-09-29T03:42:14.965Z,5.33
2018-09-29T03:44:42.921Z,5.63
2018-09-29T03:47:10.585Z,4.80
2018-09-29T03:49:38.217Z,3.50
2018-09-29T03:52:06.149Z,2.70
2018-09-29T03:54:34.015Z,5.93
2018-09-29T03:57:01.690Z,4.03
2018-09-29T03:59:29.325Z,6.40
2018-09-29T04:01:57.003Z,5.27
2018-09-29T04:04:24.607Z,6.03
2018-09-29T04:06:52.457Z,5.83
2018-09-29T04:09:20.170Z,4.90
2018-09-29T04:11:47.797Z,3.97
2018-09-29T04:14:15.649Z,4.97
2018-09-29T04:16:43.290Z,4.87
2018-09-29T04:19:11.010Z,4.90
2018-09-29T04:21:43.762Z,4.20
2018-09-29T04:24:11.601Z,4.00
2018-09-29T04:26:39.357Z,2.77
2018-09-29T04:29:07.590Z,4.37
2018-09-29T04:31:35.264Z,4.03
2018-09-29T04:34:02.937Z,3.53
2018-09-29T04:36:30.911Z,5.03
2018-09-29T04:38:58.568Z,3.50
2018-09-29T04:41:26.221Z,5.07
2018-09-29T04:43:54.318Z,5.70
2018-09-29T04:46:21.968Z,3.90
2018-09-29T04:48:49.703Z,4.50
2018-09-29T04:51:17.407Z,6.13
2018-09-29T04:53:45.930Z,4.83
2018-09-29T04:56:13.561Z,5.03
2018-09-29T04:58:41.741Z,7.20
2018-09-29T05:01:09.404Z,5.50
2018-09-29T05:03:37.333Z,5.37
2018-09-29T05:06:05.068Z,5.53
2018-09-29T05:08:32.671Z,3.73
2018-09-29T05:11:00.788Z,4.77
2018-09-29T05:13:28.389Z,7.17
2018-09-29T05:15:56.039Z,5.10
2018-09-29T05:18:23.852Z,4.33
2018-09-29T05:20:51.462Z,4.23
2018-09-29T05:23:19.303Z,6.63
2018-09-29T05:25:47.332Z,6.20
2018-09-29T05:28:15.006Z,4.63
2018-09-29T05:30:43.052Z,4.87
2018-09-29T05:33:10.928Z,3.13
2018-09-29T05:35:38.564Z,7.20
2018-09-29T05:38:06.445Z,3.93
2018-09-29T05:40:34.347Z,5.27
2018-09-29T05:43:01.956Z,3.90
2018-09-29T05:45:29.646Z,6.17
2018-09-29T05:47:57.562Z,3.43
2018-09-29T05:50:25.205Z,4.57
2018-09-29T05:52:52.973Z,4.40
2018-09-29T05:55:20.605Z,4.83
2018-09-29T05:57:48.265Z,5.00
2018-09-29T06:00:15.970Z,5.23
2018-09-29T06:02:43.605Z,2.90
2018-09-29T06:05:11.388Z,2.90
2018-09-29T06:07:39.107Z,3.37
2018-09-29T06:10:06.890Z,4.10
2018-09-29T06:12:34.474Z,2.23
2018-09-29T06:15:02.374Z,3.10
2018-09-29T06:17:29.909Z,2.90
2018-09-29T06:19:57.474Z,3.80
2018-09-29T06:22:25.411Z,2.50
2018-09-29T06:24:52.959Z,2.97
2018-09-29T06:27:20.503Z,2.63
2018-09-29T06:29:48.379Z,3.50
2018-09-29T06:32:15.987Z,2.20
2018-09-29T06:34:43.571Z,2.10
2018-09-29T06:37:11.435Z,2.57
2018-09-29T06:39:40.311Z,3.00
2018-09-29T06:42:08.584Z,2.47
2018-09-29T06:44:36.361Z,3.43
2018-09-29T06:47:03.902Z,3.93
2018-09-29T06:49:31.644Z,2.63
2018-09-29T06:51:59.502Z,3.57
2018-09-29T06:54:27.453Z,4.07
2018-09-29T06:56:54.990Z,2.67
2018-09-29T06:59:22.838Z,2.90
2018-09-29T07:01:50.581Z,1.90
2018-09-29T07:04:18.293Z,2.97
2018-09-29T07:06:45.935Z,3.47
2018-09-29T07:09:13.540Z,3.40
2018-09-29T07:12:18.953Z,3.00
2018-09-29T07:14:46.611Z,3.13
2018-09-29T07:17:14.127Z,3.00
2018-09-29T07:19:42.966Z,3.13
2018-09-29T07:22:10.590Z,1.87
2018-09-29T07:24:38.074Z,1.37
2018-09-29T07:27:06.092Z,2.83
2018-09-29T07:29:33.639Z,1.67
2018-09-29T07:32:01.290Z,2.57
2018-09-29T07:34:29.011Z,3.37
2018-09-29T07:36:56.562Z,2.00
2018-09-29T07:39:24.487Z,1.50
2018-09-29T07:41:52.142Z,3.03
2018-09-29T07:44:19.742Z,1.10
2018-09-29T07:46:47.302Z,2.87
2018-09-29T07:49:15.052Z,1.93
2018-09-29T07:51:42.668Z,2.27
2018-09-29T07:54:10.246Z,1.50
2018-09-29T07:56:37.926Z,1.40
2018-09-29T07:59:05.442Z,1.40
2018-09-29T08:01:33.021Z,1.80
2018-09-29T08:04:03.743Z,2.80
2018-09-29T08:06:31.339Z,3.03
2018-09-29T08:08:58.792Z,1.80
2018-09-29T08:11:26.879Z,2.30
2018-09-29T08:13:54.475Z,3.87
2018-09-29T08:16:22.025Z,1.60
2018-09-29T08:18:50.107Z,2.67
2018-09-29T08:21:17.662Z,3.27
2018-09-29T08:23:45.205Z,2.10
2018-09-29T08:26:12.859Z,1.80
2018-09-29T08:28:40.368Z,2.20
2018-09-29T08:31:07.953Z,1.77
2018-09-29T08:33:35.827Z,1.77
2018-09-29T08:36:03.435Z,2.13
2018-09-29T08:38:30.982Z,2.17
2018-09-29T08:40:58.991Z,1.90
2018-09-29T08:43:26.551Z,1.70
2018-09-29T08:45:54.155Z,2.00
2018-09-29T08:48:22.102Z,2.23
2018-09-29T08:50:50.450Z,2.20
2018-09-29T08:53:18.860Z,2.17
2018-09-29T08:55:46.503Z,1.30
2018-09-29T08:58:14.026Z,1.17
2018-09-29T09:00:41.542Z,1.37
2018-09-29T09:03:09.298Z,2.80
2018-09-29T09:05:36.873Z,4.70
2018-09-29T09:08:04.502Z,1.83
2018-09-29T09:10:32.122Z,2.30
2018-09-29T09:12:59.695Z,1.80
2018-09-29T09:15:27.294Z,1.43
2018-09-29T09:17:55.115Z,1.10
2018-09-29T09:20:22.675Z,2.13
2018-09-29T09:22:50.666Z,2.20
2018-09-29T09:25:18.258Z,2.07
2018-09-29T09:27:45.810Z,2.70
2018-09-29T09:30:14.195Z,3.47
2018-09-29T09:32:41.806Z,2.10
2018-09-29T09:35:10.071Z,2.13
2018-09-29T09:37:37.983Z,2.27
2018-09-29T09:40:05.510Z,3.10
2018-09-29T09:42:33.073Z,2.37
2018-09-29T09:45:00.688Z,2.53
2018-09-29T09:47:28.229Z,2.30
2018-09-29T09:49:55.814Z,3.23
2018-09-29T09:52:23.728Z,1.80
2018-09-29T09:54:51.333Z,1.93
2018-09-29T09:57:18.851Z,1.67
2018-09-29T09:59:46.696Z,2.47
2018-09-29T10:02:20.170Z,2.53
2018-09-29T10:04:48.124Z,1.80
2018-09-29T10:07:15.686Z,2.03
2018-09-29T10:09:43.486Z,1.13
2018-09-29T10:12:11.004Z,2.30
2018-09-29T10:14:38.854Z,1.67
2018-09-29T10:17:06.365Z,2.00
2018-09-29T10:19:33.936Z,1.67
2018-09-29T10:22:01.531Z,1.20
2018-09-29T10:24:29.055Z,1.57
2018-09-29T10:26:56.569Z,1.37
2018-09-29T10:29:24.684Z,1.40
2018-09-29T10:31:52.264Z,1.43
2018-09-29T10:34:19.882Z,1.53
2018-09-29T10:36:48.422Z,0.97
2018-09-29T10:39:16.038Z,2.43
2018-09-29T10:41:43.562Z,1.73
2018-09-29T10:44:12.110Z,1.80
2018-09-29T10:46:39.641Z,1.20
2018-09-29T10:49:07.194Z,1.50
2018-09-29T10:51:35.038Z,0.60
2018-09-29T10:54:02.657Z,2.27
2018-09-29T10:56:30.306Z,1.27
2018-09-29T10:58:58.233Z,1.47
2018-09-29T11:01:25.818Z,1.70
2018-09-29T11:03:53.644Z,1.77
2018-09-29T11:06:21.206Z,1.30
2018-09-29T11:08:48.755Z,1.30
2018-09-29T11:11:16.674Z,1.17
2018-09-29T11:13:44.251Z,0.80
2018-09-29T11:16:11.802Z,0.63
2018-09-29T11:18:39.510Z,1.30
2018-09-29T11:21:07.047Z,1.43
2018-09-29T11:23:34.955Z,1.23
2018-09-29T11:26:02.526Z,0.63
2018-09-29T11:28:30.062Z,0.93
2018-09-29T11:30:57.802Z,2.10
2018-09-29T11:33:25.318Z,1.27
2018-09-29T11:35:52.836Z,1.90
2018-09-29T11:38:21.144Z,2.73
2018-09-29T11:40:48.684Z,1.97
2018-09-29T11:43:16.222Z,1.53
2018-09-29T11:45:44.156Z,0.87
2018-09-29T11:48:11.717Z,0.87
2018-09-29T11:50:39.333Z,1.40
2018-09-29T11:53:07.074Z,1.80
2018-09-29T11:55:34.599Z,2.30
2018-09-29T11:58:02.173Z,1.83
2018-09-29T12:00:29.966Z,2.17
2018-09-29T12:02:57.572Z,0.53
2018-09-29T12:05:25.114Z,1.50
2018-09-29T12:07:53.100Z,1.10
2018-09-29T12:10:20.662Z,0.63
2018-09-29T12:12:48.242Z,0.90
2018-09-29T12:15:16.083Z,1.87
2018-09-29T12:17:43.610Z,2.67
2018-09-29T12:20:11.135Z,0.73
2018-09-29T12:22:38.875Z,1.53
2018-09-29T12:25:06.390Z,1.00
2018-09-29T12:27:33.995Z,1.07
2018-09-29T12:30:01.780Z,0.97
2018-09-29T12:32:36.096Z,0.67
2018-09-29T12:35:04.062Z,0.93
2018-09-29T12:37:31.649Z,1.40
2018-09-29T12:39:59.412Z,2.00
2018-09-29T12:42:27.169Z,0.80
2018-09-29T12:44:54.875Z,1.53
2018-09-29T12:47:22.339Z,2.00
2018-09-29T12:49:50.015Z,1.30
2018-09-29T12:52:17.562Z,1.07
2018-09-29T12:54:45.059Z,1.33
2018-09-29T12:57:12.889Z,1.50
2018-09-29T12:59:40.462Z,0.90
2018-09-29T13:02:08.017Z,0.67
2018-09-29T13:04:35.927Z,1.10
2018-09-29T13:07:03.530Z,0.47
2018-09-29T13:09:31.102Z,1.30
2018-09-29T13:11:58.970Z,0.70
2018-09-29T13:14:26.566Z,0.60
2018-09-29T13:16:54.169Z,0.50
2018-09-29T13:19:21.750Z,1.60
2018-09-29T13:21:49.264Z,2.47
2018-09-29T13:24:16.913Z,0.60
2018-09-29T13:26:44.475Z,1.57
2018-09-29T13:29:12.070Z,0.93
2018-09-29T13:31:39.902Z,0.83
2018-09-29T13:34:07.738Z,0.67
2018-09-29T13:36:35.646Z,1.10
2018-09-29T13:39:04.839Z,0.97
2018-09-29T13:41:33.126Z,1.17
2018-09-29T13:44:00.910Z,0.97
2018-09-29T13:46:28.550Z,0.97
2018-09-29T13:48:56.108Z,1.03
2018-09-29T13:51:24.016Z,0.77
2018-09-29T13:53:51.553Z,1.10
2018-09-29T13:56:19.074Z,1.10
2018-09-29T13:58:46.653Z,0.53
2018-09-29T14:01:14.210Z,1.13
2018-09-29T14:03:41.726Z,1.03
2018-09-29T14:06:09.499Z,0.67
2018-09-29T14:08:37.084Z,0.70
2018-09-29T14:11:04.837Z,1.17
2018-09-29T14:13:32.418Z,1.67
2018-09-29T14:15:59.995Z,0.90
2018-09-29T14:18:27.726Z,1.60
2018-09-29T14:20:55.271Z,0.93
2018-09-29T14:23:22.785Z,0.90
2018-09-29T14:25:50.383Z,1.27
2018-09-29T14:28:18.048Z,1.20
2018-09-29T14:30:45.558Z,2.27
2018-09-29T14:33:13.145Z,1.57
2018-09-29T14:35:40.665Z,1.70
2018-09-29T14:38:08.170Z,1.53
2018-09-29T14:40:36.108Z,1.37
2018-09-29T14:43:04.216Z,0.87
2018-09-29T14:45:31.795Z,0.90
2018-09-29T14:47:59.643Z,0.60
2018-09-29T14:50:27.162Z,3.80
2018-09-29T14:52:54.766Z,1.37
2018-09-29T14:55:22.639Z,1.30
2018-09-29T14:57:50.210Z,1.83
2018-09-29T15:00:17.830Z,2.37
2018-09-29T15:02:45.415Z,2.20
2018-09-29T15:05:13.010Z,0.50
2018-09-29T15:07:40.573Z,3.13
2018-09-29T15:10:08.547Z,0.77
2018-09-29T15:12:36.117Z,2.10
2018-09-29T15:15:04.350Z,2.20
2018-09-29T15:17:32.187Z,0.63
2018-09-29T15:19:59.717Z,0.53
2018-09-29T15:22:27.789Z,0.80
2018-09-29T15:24:55.313Z,2.73
2018-09-29T15:27:22.834Z,1.47
2018-09-29T15:29:50.441Z,1.03
2018-09-29T15:32:18.092Z,1.20
2018-09-29T15:34:45.618Z,1.13
2018-09-29T15:37:13.411Z,5.43
2018-09-29T15:39:40.944Z,0.60
2018-09-29T15:42:08.730Z,0.87
2018-09-29T15:44:36.777Z,2.63
2018-09-29T15:47:04.682Z,1.27
2018-09-29T15:49:32.270Z,0.73
2018-09-29T15:52:00.217Z,0.50
2018-09-29T15:54:27.874Z,1.90
2018-09-29T15:56:55.536Z,1.90
2018-09-29T15:59:23.237Z,2.60
2018-09-29T16:01:50.926Z,2.13
2018-09-29T16:04:18.593Z,0.70
2018-09-29T16:06:46.646Z,1.27
2018-09-29T16:09:14.274Z,2.17
2018-09-29T16:11:42.193Z,0.60
2018-09-29T16:14:09.946Z,1.60
2018-09-29T16:16:37.635Z,2.00
2018-09-29T16:19:05.805Z,0.73
2018-09-29T16:21:33.525Z,2.50
2018-09-29T16:24:01.163Z,2.07
2018-09-29T16:26:28.984Z,2.67
2018-09-29T16:28:56.738Z,2.27
2018-09-29T16:31:24.365Z,1.10
2018-09-29T16:33:52.409Z,0.73
2018-09-29T16:36:20.121Z,2.43
2018-09-29T16:38:47.767Z,1.20
2018-09-29T16:41:15.877Z,1.43
2018-09-29T16:43:44.612Z,2.10
2018-09-29T16:46:12.466Z,1.13
2018-09-29T16:48:40.369Z,2.53
2018-09-29T16:51:08.533Z,2.33
2018-09-29T16:53:36.349Z,2.27
2018-09-29T16:56:03.989Z,2.30
2018-09-29T16:58:32.057Z,1.97
2018-09-29T17:00:59.790Z,2.47
2018-09-29T17:03:27.509Z,2.93
2018-09-29T17:05:55.667Z,1.53
2018-09-29T17:08:23.347Z,3.40
2018-09-29T17:10:51.018Z,3.73
2018-09-29T17:13:18.934Z,3.60
2018-09-29T17:15:47.055Z,4.13
2018-09-29T17:18:14.739Z,4.40
2018-09-29T17:20:42.409Z,3.40
2018-09-29T17:23:10.393Z,2.97
2018-09-29T17:25:38.017Z,3.47
2018-09-29T17:28:05.718Z,2.73
2018-09-29T17:30:33.563Z,2.47
2018-09-29T17:33:01.245Z,6.23
2018-09-29T17:35:28.885Z,3.17
2018-09-29T17:37:56.827Z,3.37
2018-09-29T17:40:24.825Z,4.97
2018-09-29T17:42:52.465Z,2.67
2018-09-29T17:45:21.650Z,4.23
2018-09-29T17:47:49.288Z,4.60
2018-09-29T17:50:17.002Z,3.67
2018-09-29T17:52:45.081Z,2.67
2018-09-29T17:55:13.089Z,3.80
2018-09-29T17:57:40.761Z,3.57
2018-09-29T18:00:08.909Z,6.00
2018-09-29T18:02:36.585Z,6.40
2018-09-29T18:05:04.225Z,5.43
2018-09-29T18:07:32.172Z,5.10
2018-09-29T18:09:59.817Z,4.87
2018-09-29T18:12:27.463Z,4.93
2018-09-29T18:14:55.188Z,5.87
2018-09-29T18:17:22.859Z,7.13
2018-09-29T18:19:50.510Z,6.17
2018-09-29T18:22:18.362Z,5.60
2018-09-29T18:24:46.058Z,7.00
2018-09-29T18:27:14.129Z,7.27
2018-09-29T18:29:41.828Z,8.70
2018-09-29T18:32:09.518Z,9.00
2018-09-29T18:34:37.626Z,9.27
2018-09-29T18:37:05.401Z,9.50
2018-09-29T18:39:33.061Z,6.13
2018-09-29T18:42:01.114Z,7.93
2018-09-29T18:44:28.789Z,9.17
2018-09-29T18:46:56.778Z,7.73
2018-09-29T18:49:24.557Z,6.43
2018-09-29T18:51:52.302Z,6.47
2018-09-29T18:54:19.968Z,7.07
2018-09-29T18:56:48.017Z,5.47
2018-09-29T18:59:15.639Z,5.43
2018-09-29T19:01:43.300Z,4.37
2018-09-29T19:04:11.227Z,5.57
2018-09-29T19:06:38.958Z,5.83
2018-09-29T19:09:07.715Z,4.03
2018-09-29T19:11:35.581Z,4.70
2018-09-29T19:14:03.309Z,4.77
2018-09-29T19:16:31.041Z,4.70
2018-09-29T19:18:59.020Z,3.83
2018-09-29T19:21:26.673Z,3.40
2018-09-29T19:23:54.297Z,6.37
2018-09-29T19:26:22.006Z,4.87
2018-09-29T19:28:49.646Z,3.70
2018-09-29T19:31:17.293Z,5.37
2018-09-29T19:33:45.211Z,5.77
2018-09-29T19:36:12.914Z,4.30
2018-09-29T19:38:40.618Z,5.80
2018-09-29T19:41:08.530Z,4.80
2018-09-29T19:43:36.284Z,4.40
2018-09-29T19:46:04.722Z,3.53
2018-09-29T19:48:32.586Z,4.80
2018-09-29T19:51:00.312Z,5.00
2018-09-29T19:53:27.978Z,4.40
2018-09-29T19:55:55.892Z,4.63
2018-09-29T19:58:23.563Z,5.57
2018-09-29T20:00:51.201Z,5.03
2018-09-29T20:03:19.304Z,4.90
2018-09-29T20:05:46.996Z,5.80
2018-09-29T20:08:14.659Z,3.27
2018-09-29T20:10:42.897Z,4.50
2018-09-29T20:13:10.533Z,3.43
2018-09-29T20:15:38.198Z,4.73
2018-09-29T20:18:06.115Z,5.03
2018-09-29T20:20:34.236Z,3.27
2018-09-29T20:23:01.976Z,4.43
2018-09-29T20:25:29.589Z,3.47
2018-09-29T20:27:57.911Z,4.30
2018-09-29T20:30:25.588Z,5.13
2018-09-29T20:32:53.270Z,4.47
2018-09-29T20:35:21.256Z,3.70
2018-09-29T20:37:48.929Z,3.70
2018-09-29T20:40:16.967Z,5.00
2018-09-29T20:42:44.633Z,3.83
2018-09-29T20:45:12.399Z,3.47
2018-09-29T20:47:41.283Z,3.40
2018-09-29T20:50:08.901Z,6.27
2018-09-29T20:52:36.597Z,5.73
2018-09-29T20:55:04.406Z,4.70
2018-09-29T20:57:32.100Z,3.37
2018-09-29T20:59:59.762Z,4.23
2018-09-29T21:02:27.617Z,4.93
2018-09-29T21:04:55.233Z,5.63
2018-09-29T21:07:23.842Z,5.33
2018-09-29T21:10:22.330Z,5.63
2018-09-29T21:12:51.912Z,5.43
2018-09-29T21:15:19.602Z,4.73
2018-09-29T21:17:47.359Z,5.30
2018-09-29T21:20:15.045Z,4.77
2018-09-29T21:22:43.014Z,4.93
2018-09-29T21:25:11.110Z,5.43
2018-09-29T21:27:38.793Z,3.60
2018-09-29T21:30:09.005Z,5.43
2018-09-29T21:32:38.136Z,4.10
2018-09-29T21:35:08.759Z,4.73
2018-09-29T21:37:40.254Z,5.07
2018-09-29T21:40:08.792Z,3.93
2018-09-29T21:42:36.666Z,5.50
2018-09-29T21:45:05.866Z,5.27
2018-09-29T21:47:34.113Z,5.73
2018-09-29T21:50:02.915Z,4.43
2018-09-29T21:52:31.913Z,4.10
2018-09-29T21:55:00.587Z,6.80
2018-09-29T21:57:28.194Z,3.50
2018-09-29T21:59:56.850Z,2.77
2018-09-29T22:02:24.767Z,4.43
2018-09-29T22:04:52.662Z,3.37
2018-09-29T22:07:21.597Z,3.57
2018-09-29T22:09:49.424Z,4.23
2018-09-29T22:12:18.027Z,4.33
2018-09-29T22:14:46.029Z,5.33
2018-09-29T22:17:14.244Z,3.47
2018-09-29T22:19:41.931Z,5.03
2018-09-29T22:22:09.949Z,5.97
2018-09-29T22:24:37.598Z,3.20
2018-09-29T22:27:05.232Z,7.07
2018-09-29T22:29:33.419Z,4.27
2018-09-29T22:32:01.278Z,3.73
2018-09-29T22:34:29.445Z,5.00
2018-09-29T22:36:57.378Z,6.50
2018-09-29T22:39:25.462Z,8.73
2018-09-29T22:41:53.334Z,11.57
2018-09-29T22:44:21.350Z,9.73
2018-09-29T22:46:49.056Z,10.50
2018-09-29T22:49:17.442Z,9.20
2018-09-29T22:51:46.220Z,6.90
2018-09-29T22:54:14.913Z,7.07
2018-09-29T22:56:43.294Z,5.83
2018-09-29T22:59:11.208Z,4.80
2018-09-29T23:01:39.298Z,5.40
2018-09-29T23:04:07.564Z,6.43
2018-09-29T23:06:35.506Z,3.93
2018-09-29T23:09:05.709Z,4.17
2018-09-29T23:11:33.783Z,3.07
2018-09-29T23:14:02.414Z,3.20
2018-09-29T23:16:31.170Z,3.77
2018-09-29T23:18:59.329Z,3.97
2018-09-29T23:21:27.244Z,4.40
2018-09-29T23:23:55.702Z,5.00
2018-09-29T23:26:23.446Z,4.03
2018-09-29T23:28:51.546Z,3.73
2018-09-29T23:31:20.277Z,5.17
2018-09-29T23:33:48.833Z,3.80
2018-09-29T23:36:16.458Z,4.90
2018-09-29T23:38:45.181Z,2.50
2018-09-29T23:41:13.213Z,2.43
2018-09-29T23:43:41.464Z,3.47
2018-09-29T23:46:09.701Z,3.97
2018-09-29T23:48:38.683Z,3.23
2018-09-29T23:51:07.402Z,3.97
2018-09-29T23:53:35.816Z,5.10
2018-09-29T23:56:03.502Z,3.67
2018-09-29T23:58:31.217Z,2.77
